Terminal Aerodrome Forecast
Issued by NWS

Current Version | Previous Version | Text Only | Print | Product List | Glossary On
Versions: 1 2 3 4 5 6 7 8 9 10 11 12 13 14 15 16 17
000
FTUS43 KMPX 011725
TAFRNH
TAF
KRNH 011725Z 0118/0218 21005KT P6SM SCT040 BKN200
     FM020200 17004KT P6SM SCT150 BKN250
     FM020900 18002KT 4SM BR BKN250
     FM021400 17012KT P6SM SCT050=

USA.gov is the U.S. government's official web portal to all federal, state and local government web resources and services.